createdAt,value
2018-04-16T00:00:47.561Z,23.33
2018-04-16T00:03:15.186Z,20.57
2018-04-16T00:05:42.903Z,19.03
2018-04-16T00:08:10.414Z,27.10
2018-04-16T00:10:39.770Z,24.27
2018-04-16T00:13:07.276Z,23.20
2018-04-16T00:15:34.810Z,23.13
2018-04-16T00:18:02.342Z,23.57
2018-04-16T00:20:29.864Z,26.17
2018-04-16T00:22:57.666Z,23.00
2018-04-16T00:25:25.382Z,22.60
2018-04-16T00:27:52.905Z,24.50
2018-04-16T00:30:20.416Z,23.20
2018-04-16T00:32:53.627Z,21.13
2018-04-16T00:35:27.763Z,22.67
2018-04-16T00:38:01.167Z,24.43
2018-04-16T00:40:34.424Z,22.90
2018-04-16T00:43:08.292Z,26.07
2018-04-16T00:45:41.492Z,24.60
2018-04-16T00:48:14.744Z,23.53
2018-04-16T00:50:48.046Z,25.33
2018-04-16T00:53:21.420Z,22.63
2018-04-16T00:55:55.004Z,22.83
2018-04-16T00:58:28.331Z,24.87
2018-04-16T01:01:01.481Z,23.90
2018-04-16T01:03:34.614Z,24.90
2018-04-16T01:06:07.804Z,25.77
2018-04-16T01:08:40.967Z,23.90
2018-04-16T01:11:14.180Z,25.37
2018-04-16T01:13:47.428Z,23.37
2018-04-16T01:16:20.577Z,22.50
2018-04-16T01:18:53.655Z,24.27
2018-04-16T01:21:26.778Z,24.50
2018-04-16T01:24:00.112Z,22.77
2018-04-16T01:26:33.567Z,22.50
2018-04-16T01:29:06.627Z,22.33
2018-04-16T01:31:39.763Z,24.47
2018-04-16T01:34:12.912Z,22.83
2018-04-16T01:36:46.068Z,25.47
2018-04-16T01:39:20.107Z,24.63
2018-04-16T01:41:54.050Z,23.67
2018-04-16T01:44:27.332Z,24.60
2018-04-16T01:47:03.864Z,27.57
2018-04-16T01:49:37.712Z,25.33
2018-04-16T01:52:11.034Z,25.67
2018-04-16T01:54:44.103Z,25.33
2018-04-16T01:57:17.244Z,28.30
2018-04-16T01:59:50.424Z,22.93
2018-04-16T02:02:23.685Z,24.30
2018-04-16T02:04:57.694Z,25.03
2018-04-16T02:07:30.970Z,23.43
2018-04-16T02:10:04.235Z,26.17
2018-04-16T02:12:37.515Z,25.33
2018-04-16T02:15:11.042Z,26.87
2018-04-16T02:17:44.303Z,25.63
2018-04-16T02:20:18.321Z,23.90
2018-04-16T02:22:51.476Z,26.23
2018-04-16T02:25:24.663Z,24.07
2018-04-16T02:27:57.758Z,24.37
2018-04-16T02:30:30.855Z,25.23
2018-04-16T02:33:04.009Z,26.00
2018-04-16T02:35:37.213Z,24.33
2018-04-16T02:38:10.469Z,24.47
2018-04-16T02:40:43.629Z,23.57
2018-04-16T02:43:16.933Z,26.27
2018-04-16T02:45:50.041Z,28.87
2018-04-16T02:48:23.385Z,26.07
2018-04-16T02:50:56.447Z,29.90
2018-04-16T02:53:30.302Z,28.77
2018-04-16T02:56:03.795Z,24.40
2018-04-16T02:58:36.924Z,28.03
2018-04-16T03:01:10.159Z,25.90
2018-04-16T03:03:43.416Z,28.90
2018-04-16T03:06:17.282Z,35.90
2018-04-16T03:08:50.436Z,25.87
2018-04-16T03:11:24.289Z,25.53
2018-04-16T03:13:57.393Z,29.43
2018-04-16T03:16:30.686Z,27.67
2018-04-16T03:19:04.583Z,29.47
2018-04-16T03:21:38.491Z,27.27
2018-04-16T03:24:11.770Z,27.47
2018-04-16T03:26:44.920Z,29.67
2018-04-16T03:29:18.998Z,26.97
2018-04-16T03:31:52.131Z,26.10
2018-04-16T03:34:26.085Z,27.77
2018-04-16T03:36:59.262Z,26.70
2018-04-16T03:39:33.203Z,25.70
2018-04-16T03:42:06.562Z,26.70
2018-04-16T03:44:40.444Z,28.33
2018-04-16T03:47:14.538Z,25.90
2018-04-16T03:49:47.817Z,27.47
2018-04-16T03:52:20.935Z,26.37
2018-04-16T03:54:49.820Z,28.00
2018-04-16T03:57:17.394Z,27.67
2018-04-16T03:59:45.896Z,27.50
2018-04-16T04:02:13.426Z,28.87
2018-04-16T04:04:41.834Z,27.57
2018-04-16T04:07:09.329Z,30.00
2018-04-16T04:09:36.866Z,26.83
2018-04-16T04:12:04.578Z,25.20
2018-04-16T04:14:32.114Z,30.37
2018-04-16T04:16:59.618Z,26.83
2018-04-16T04:19:28.127Z,27.10
2018-04-16T04:21:55.666Z,28.03
2018-04-16T04:24:49.965Z,27.67
2018-04-16T04:27:29.521Z,22.27
2018-04-16T04:32:56.064Z,27.93
2018-04-16T04:35:23.700Z,32.27
2018-04-16T04:37:51.199Z,27.13
2018-04-16T04:40:18.789Z,25.53
2018-04-16T04:42:46.337Z,28.83
2018-04-16T04:45:13.928Z,26.53
2018-04-16T04:47:42.279Z,27.67
2018-04-16T04:50:10.016Z,28.17
2018-04-16T04:52:39.285Z,27.83
2018-04-16T04:55:06.852Z,28.53
2018-04-16T04:57:34.549Z,25.07
2018-04-16T05:00:02.077Z,27.33
2018-04-16T05:02:29.594Z,28.13
2018-04-16T05:04:58.149Z,26.70
2018-04-16T05:07:25.678Z,28.20
2018-04-16T05:09:53.219Z,31.10
2018-04-16T05:12:21.633Z,30.40
2018-04-16T05:14:49.163Z,27.23
2018-04-16T05:17:17.610Z,30.37
2018-04-16T05:19:45.200Z,29.23
2018-04-16T05:22:13.838Z,27.53
2018-04-16T05:24:41.377Z,31.97
2018-04-16T05:27:09.173Z,26.53
2018-04-16T05:29:37.082Z,34.73
2018-04-16T05:32:04.646Z,29.07
2018-04-16T05:34:32.939Z,27.63
2018-04-16T05:37:00.599Z,27.73
2018-04-16T05:39:28.357Z,70.83
2018-04-16T05:41:55.897Z,35.53
2018-04-16T05:44:24.204Z,27.43
2018-04-16T05:46:52.184Z,29.93
2018-04-16T05:49:20.115Z,26.47
2018-04-16T05:51:48.640Z,28.27
2018-04-16T05:54:16.148Z,28.23
2018-04-16T05:56:43.685Z,26.27
2018-04-16T05:59:11.327Z,26.97
2018-04-16T06:01:38.872Z,25.77
2018-04-16T06:04:06.598Z,28.00
2018-04-16T06:06:34.283Z,29.67
2018-04-16T06:09:01.823Z,33.27
2018-04-16T06:11:30.274Z,28.57
2018-04-16T06:13:57.790Z,27.77
2018-04-16T06:16:25.701Z,28.07
2018-04-16T06:18:53.233Z,35.17
2018-04-16T06:21:20.783Z,32.53
2018-04-16T06:23:48.471Z,35.07
2018-04-16T06:26:17.004Z,34.73
2018-04-16T06:28:45.589Z,36.13
2018-04-16T06:31:13.297Z,38.93
2018-04-16T06:33:40.811Z,39.20
2018-04-16T06:36:08.379Z,38.87
2018-04-16T06:38:37.573Z,38.63
2018-04-16T06:41:05.138Z,34.87
2018-04-16T06:43:32.786Z,33.07
2018-04-16T06:46:02.029Z,38.83
2018-04-16T06:48:30.389Z,36.93
2018-04-16T06:50:57.917Z,34.73
2018-04-16T06:53:26.132Z,33.07
2018-04-16T06:55:53.795Z,32.47
2018-04-16T06:58:21.425Z,34.73
2018-04-16T07:00:49.846Z,31.83
2018-04-16T07:03:17.530Z,34.50
2018-04-16T07:05:45.163Z,30.07
2018-04-16T07:08:12.750Z,31.93
2018-04-16T07:10:40.275Z,31.37
2018-04-16T07:13:08.051Z,32.83
2018-04-16T07:15:35.581Z,32.70
2018-04-16T07:18:04.740Z,35.20
2018-04-16T07:20:32.653Z,32.80
2018-04-16T07:23:00.181Z,35.73
2018-04-16T07:25:27.923Z,33.43
2018-04-16T07:27:55.751Z,34.97
2018-04-16T07:30:23.305Z,44.27
2018-04-16T07:32:51.396Z,36.33
2018-04-16T07:35:18.937Z,36.53
2018-04-16T07:37:46.452Z,42.60
2018-04-16T07:40:13.980Z,37.40
2018-04-16T07:42:42.287Z,34.97
2018-04-16T07:45:11.193Z,34.47
2018-04-16T07:47:38.834Z,33.67
2018-04-16T07:50:06.417Z,32.53
2018-04-16T07:52:34.162Z,32.57
2018-04-16T07:55:01.841Z,33.67
2018-04-16T07:57:29.528Z,33.90
2018-04-16T07:59:57.045Z,33.97
2018-04-16T08:02:24.590Z,33.67
2018-04-16T08:04:52.174Z,38.37
2018-04-16T08:07:19.756Z,39.83
2018-04-16T08:09:47.284Z,29.83
2018-04-16T08:12:15.117Z,32.80
2018-04-16T08:14:42.652Z,38.53
2018-04-16T08:17:10.161Z,32.67
2018-04-16T08:19:38.096Z,33.87
2018-04-16T08:22:06.564Z,30.53
2018-04-16T08:24:34.353Z,33.90
2018-04-16T08:27:02.796Z,34.30
2018-04-16T08:29:31.091Z,35.57
2018-04-16T08:31:59.369Z,32.37
2018-04-16T08:34:26.894Z,35.87
2018-04-16T08:36:54.407Z,32.93
2018-04-16T08:39:22.021Z,34.57
2018-04-16T08:41:49.545Z,34.80
2018-04-16T08:44:17.441Z,39.87
2018-04-16T08:46:44.928Z,33.37
2018-04-16T08:49:12.481Z,34.50
2018-04-16T08:51:40.116Z,33.10
2018-04-16T08:54:08.931Z,32.33
2018-04-16T08:56:37.223Z,32.13
2018-04-16T08:59:05.044Z,29.87
2018-04-16T09:01:32.674Z,30.90
2018-04-16T09:04:00.465Z,34.63
2018-04-16T09:06:28.115Z,31.10
2018-04-16T09:08:55.689Z,32.73
2018-04-16T09:11:23.312Z,28.27
2018-04-16T09:13:50.878Z,31.40
2018-04-16T09:16:18.385Z,28.50
2018-04-16T09:18:45.960Z,29.20
2018-04-16T09:21:13.516Z,30.97
2018-04-16T09:23:41.794Z,29.20
2018-04-16T09:26:10.080Z,30.13
2018-04-16T09:28:38.392Z,30.20
2018-04-16T09:31:06.521Z,30.00
2018-04-16T09:33:34.047Z,28.20
2018-04-16T09:36:01.547Z,30.97
2018-04-16T09:38:29.835Z,32.13
2018-04-16T09:40:57.461Z,27.57
2018-04-16T09:43:24.969Z,31.07
2018-04-16T09:45:52.535Z,28.37
2018-04-16T09:48:20.197Z,28.23
2018-04-16T09:50:48.564Z,27.00
2018-04-16T09:53:17.707Z,29.53
2018-04-16T09:55:45.256Z,26.50
2018-04-16T09:58:12.773Z,28.90
2018-04-16T10:00:54.967Z,26.63
2018-04-16T10:03:23.101Z,27.40
2018-04-16T10:05:50.641Z,26.63
2018-04-16T10:08:18.145Z,25.90
2018-04-16T10:10:45.712Z,27.10
2018-04-16T10:13:13.303Z,26.97
2018-04-16T10:15:40.968Z,23.80
2018-04-16T10:18:09.316Z,26.87
2018-04-16T10:20:36.966Z,27.00
2018-04-16T10:23:04.480Z,27.33
2018-04-16T10:25:32.172Z,27.20
2018-04-16T10:27:59.715Z,26.43
2018-04-16T10:30:27.229Z,25.70
2018-04-16T10:32:54.765Z,27.10
2018-04-16T10:35:22.543Z,26.87
2018-04-16T10:37:50.801Z,28.00
2018-04-16T10:40:18.380Z,24.90
2018-04-16T10:42:46.676Z,26.70
2018-04-16T10:45:14.955Z,26.27
2018-04-16T10:47:42.597Z,26.30
2018-04-16T10:50:10.160Z,27.67
2018-04-16T10:52:37.794Z,25.10
2018-04-16T10:55:05.337Z,26.33
2018-04-16T10:57:32.909Z,24.63
2018-04-16T11:00:00.439Z,27.10
2018-04-16T11:02:27.938Z,23.83
2018-04-16T11:04:55.728Z,25.30
2018-04-16T11:07:23.249Z,25.87
2018-04-16T11:09:50.801Z,32.47
2018-04-16T11:12:18.339Z,25.17
2018-04-16T11:14:45.888Z,23.40
2018-04-16T11:17:13.510Z,25.07
2018-04-16T11:19:41.049Z,24.73
2018-04-16T11:22:08.573Z,24.07
2018-04-16T11:24:36.076Z,22.70
2018-04-16T11:27:03.583Z,25.97
2018-04-16T11:29:31.097Z,30.70
2018-04-16T11:31:58.596Z,25.73
2018-04-16T11:34:26.138Z,22.27
2018-04-16T11:36:53.882Z,22.67
2018-04-16T11:39:21.412Z,22.57
2018-04-16T11:41:49.011Z,23.03
2018-04-16T11:44:17.292Z,23.10
2018-04-16T11:46:44.802Z,23.10
2018-04-16T11:49:12.401Z,22.70
2018-04-16T11:51:40.037Z,22.77
2018-04-16T11:54:07.747Z,22.67
2018-04-16T11:56:35.446Z,28.87
2018-04-16T11:59:03.360Z,21.60
2018-04-16T12:01:30.947Z,21.53
2018-04-16T12:03:59.301Z,23.97
2018-04-16T12:06:27.326Z,24.00
2018-04-16T12:08:54.836Z,25.73
2018-04-16T12:11:22.373Z,22.47
2018-04-16T12:13:50.306Z,23.63
2018-04-16T12:16:17.892Z,22.50
2018-04-16T12:18:45.448Z,23.73
2018-04-16T12:21:12.997Z,26.57
2018-04-16T12:23:47.576Z,26.27
2018-04-16T12:26:15.975Z,28.07
2018-04-16T12:28:43.473Z,27.20
2018-04-16T12:31:10.999Z,27.10
2018-04-16T12:33:38.532Z,25.87
2018-04-16T12:36:12.067Z,26.80
2018-04-16T12:38:45.462Z,26.07
2018-04-16T12:41:18.640Z,28.13
2018-04-16T12:43:46.272Z,25.17
2018-04-16T12:46:13.859Z,26.50
2018-04-16T12:48:41.583Z,23.63
2018-04-16T12:51:09.131Z,25.00
2018-04-16T12:53:49.424Z,25.10
2018-04-16T12:56:22.812Z,25.30
2018-04-16T12:58:56.104Z,29.30
2018-04-16T13:01:23.723Z,25.83
2018-04-16T13:03:51.237Z,28.10
2018-04-16T13:06:19.596Z,24.37
2018-04-16T13:08:47.890Z,25.60
2018-04-16T13:11:16.189Z,29.07
2018-04-16T13:13:43.721Z,25.13
2018-04-16T13:16:11.418Z,27.23
2018-04-16T13:18:45.015Z,25.70
2018-04-16T13:21:12.553Z,25.93
2018-04-16T13:23:46.918Z,26.80
2018-04-16T13:26:14.433Z,24.90
2018-04-16T13:28:48.527Z,24.70
2018-04-16T13:31:16.052Z,24.70
2018-04-16T13:33:49.406Z,25.40
2018-04-16T13:36:16.906Z,25.20
2018-04-16T13:38:45.409Z,23.37
2018-04-16T13:41:18.677Z,25.50
2018-04-16T13:43:46.242Z,25.27
2018-04-16T13:46:19.337Z,24.20
2018-04-16T13:48:53.339Z,25.07
2018-04-16T13:51:21.623Z,27.07
2018-04-16T13:54:01.033Z,27.13
2018-04-16T13:56:28.579Z,27.57
2018-04-16T13:59:07.627Z,27.27
2018-04-16T14:01:35.122Z,34.00
2018-04-16T14:04:03.358Z,29.07
2018-04-16T14:06:31.024Z,28.43
2018-04-16T14:09:04.594Z,26.90
2018-04-16T14:11:32.137Z,29.30
2018-04-16T14:14:05.580Z,31.80
2018-04-16T14:16:33.179Z,29.40
2018-04-16T14:19:00.690Z,31.40
2018-04-16T14:21:29.261Z,30.73
2018-04-16T14:24:02.703Z,34.13
2018-04-16T14:26:30.480Z,30.83
2018-04-16T14:28:57.993Z,35.83
2018-04-16T14:31:26.295Z,33.63
2018-04-16T14:33:54.001Z,45.10
2018-04-16T14:36:21.743Z,34.90
2018-04-16T14:38:49.274Z,33.20
2018-04-16T14:41:24.512Z,37.77
2018-04-16T14:43:52.286Z,38.83
2018-04-16T14:46:19.783Z,35.87
2018-04-16T14:48:47.303Z,38.20
2018-04-16T14:51:15.400Z,38.70
2018-04-16T14:53:42.920Z,39.30
2018-04-16T14:56:10.561Z,48.23
2018-04-16T14:58:38.118Z,51.43
2018-04-16T15:01:11.502Z,40.53
2018-04-16T15:03:45.400Z,46.40
2018-04-16T15:06:12.921Z,45.73
2018-04-16T15:08:46.398Z,42.07
2018-04-16T15:11:20.900Z,43.93
2018-04-16T15:13:48.423Z,39.07
2018-04-16T15:16:15.961Z,40.77
2018-04-16T15:18:43.615Z,40.80
2018-04-16T15:21:11.167Z,41.00
2018-04-16T15:23:38.742Z,40.73
2018-04-16T15:26:06.369Z,40.23
2018-04-16T15:28:34.687Z,75.37
2018-04-16T15:31:02.277Z,48.27
2018-04-16T15:33:29.817Z,42.97
2018-04-16T15:35:57.378Z,40.60
2018-04-16T15:38:24.874Z,42.20
2018-04-16T15:40:52.529Z,40.10
2018-04-16T15:43:20.038Z,62.77
2018-04-16T15:45:47.807Z,41.40
2018-04-16T15:48:16.199Z,41.77
2018-04-16T15:50:43.719Z,39.57
2018-04-16T15:53:11.598Z,37.27
2018-04-16T15:55:39.217Z,40.03
2018-04-16T15:58:08.374Z,39.10
2018-04-16T16:00:36.777Z,44.03
2018-04-16T16:03:04.277Z,44.80
2018-04-16T16:05:31.763Z,41.83
2018-04-16T16:07:59.262Z,41.03
2018-04-16T16:10:26.776Z,42.50
2018-04-16T16:12:54.279Z,37.63
2018-04-16T16:15:21.823Z,43.23
2018-04-16T16:17:49.374Z,42.33
2018-04-16T16:20:16.938Z,42.00
2018-04-16T16:22:44.666Z,40.13
2018-04-16T16:25:12.944Z,39.33
2018-04-16T16:27:40.637Z,39.43
2018-04-16T16:30:08.205Z,37.87
2018-04-16T16:32:35.715Z,39.23
2018-04-16T16:35:04.123Z,42.17
2018-04-16T16:37:31.925Z,39.67
2018-04-16T16:39:59.438Z,36.50
2018-04-16T16:42:26.957Z,38.43
2018-04-16T16:44:54.473Z,39.83
2018-04-16T16:47:21.991Z,41.50
2018-04-16T16:49:49.503Z,40.67
2018-04-16T16:52:17.163Z,38.00
2018-04-16T16:54:44.682Z,35.90
2018-04-16T16:57:12.199Z,36.77
2018-04-16T16:59:39.726Z,40.93
2018-04-16T17:02:07.233Z,39.07
2018-04-16T17:04:34.771Z,40.70
2018-04-16T17:07:02.342Z,38.53
2018-04-16T17:09:29.978Z,38.63
2018-04-16T17:11:58.267Z,38.43
2018-04-16T17:14:25.813Z,36.43
2018-04-16T17:16:53.343Z,35.73
2018-04-16T17:19:20.890Z,36.13
2018-04-16T17:21:49.226Z,35.63
2018-04-16T17:24:16.735Z,38.23
2018-04-16T17:26:45.015Z,38.37
2018-04-16T17:29:12.666Z,43.10
2018-04-16T17:31:40.981Z,42.17
2018-04-16T17:34:09.232Z,42.57
2018-04-16T17:36:36.961Z,42.80
2018-04-16T17:39:07.292Z,41.60
2018-04-16T17:41:35.308Z,39.60
2018-04-16T17:44:03.601Z,40.97
2018-04-16T17:46:31.148Z,37.70
2018-04-16T17:48:58.751Z,40.13
2018-04-16T17:51:26.302Z,42.70
2018-04-16T17:53:53.886Z,41.27
2018-04-16T17:56:21.463Z,41.17
2018-04-16T17:58:50.663Z,44.90
2018-04-16T18:01:18.358Z,42.13
2018-04-16T18:03:45.883Z,40.10
2018-04-16T18:06:14.103Z,40.93
2018-04-16T18:08:42.655Z,38.83
2018-04-16T18:11:10.191Z,39.60
2018-04-16T18:13:37.729Z,51.83
2018-04-16T18:16:05.773Z,41.07
2018-04-16T18:18:33.332Z,39.03
2018-04-16T18:21:00.985Z,41.37
2018-04-16T18:23:28.558Z,39.77
2018-04-16T18:25:56.306Z,41.67
2018-04-16T18:28:23.885Z,41.70
2018-04-16T18:30:51.456Z,39.53
2018-04-16T18:33:19.910Z,50.97
2018-04-16T18:35:47.477Z,51.03
2018-04-16T18:38:15.067Z,42.00
2018-04-16T18:40:42.932Z,48.97
2018-04-16T18:43:10.463Z,50.03
2018-04-16T18:45:38.162Z,51.00
2018-04-16T18:48:05.747Z,52.60
2018-04-16T18:50:33.655Z,50.17
2018-04-16T18:53:01.236Z,45.40
2018-04-16T18:55:28.781Z,44.03
2018-04-16T18:57:56.463Z,43.23
2018-04-16T19:00:24.084Z,41.30
2018-04-16T19:02:51.612Z,46.83
2018-04-16T19:05:20.245Z,42.83
2018-04-16T19:07:47.891Z,45.70
2018-04-16T19:10:15.858Z,46.53
2018-04-16T19:12:43.365Z,45.73
2018-04-16T19:15:11.097Z,42.63
2018-04-16T19:17:44.184Z,47.33
2018-04-16T19:20:11.730Z,48.40
2018-04-16T19:22:39.621Z,40.07
2018-04-16T19:25:07.204Z,43.93
2018-04-16T19:27:40.481Z,43.07
2018-04-16T19:30:08.167Z,47.93
2018-04-16T19:32:41.420Z,50.53
2018-04-16T19:35:09.058Z,48.00
2018-04-16T19:37:37.339Z,50.43
2018-04-16T19:40:05.624Z,51.27
2018-04-16T19:42:39.691Z,49.67
2018-04-16T19:45:07.520Z,59.53
2018-04-16T19:47:35.099Z,52.50
2018-04-16T19:50:07.426Z,44.17
2018-04-16T19:52:35.348Z,44.97
2018-04-16T19:55:02.909Z,48.30
2018-04-16T19:57:36.090Z,45.97
2018-04-16T20:00:03.679Z,46.50
2018-04-16T20:02:36.830Z,48.37
2018-04-16T20:05:04.373Z,51.93
2018-04-16T20:07:31.991Z,63.30
2018-04-16T20:09:59.533Z,44.90
2018-04-16T20:12:27.093Z,47.33
2018-04-16T20:14:54.767Z,55.30
2018-04-16T20:17:22.316Z,63.87
2018-04-16T20:19:50.155Z,49.77
2018-04-16T20:22:17.650Z,49.37
2018-04-16T20:24:45.412Z,55.17
2018-04-16T20:27:13.014Z,46.43
2018-04-16T20:29:41.302Z,49.17
2018-04-16T20:32:08.839Z,48.70
2018-04-16T20:34:36.399Z,51.63
2018-04-16T20:37:04.131Z,56.67
2018-04-16T20:39:32.595Z,51.67
2018-04-16T20:42:00.167Z,45.07
2018-04-16T20:44:27.859Z,49.70
2018-04-16T20:46:55.359Z,50.13
2018-04-16T20:49:22.943Z,59.80
2018-04-16T20:51:50.486Z,49.37
2018-04-16T20:54:18.471Z,49.97
2018-04-16T20:56:46.145Z,59.30
2018-04-16T20:59:13.732Z,50.83
2018-04-16T21:01:42.138Z,55.27
2018-04-16T21:04:09.695Z,64.77
2018-04-16T21:06:38.007Z,52.83
2018-04-16T21:09:06.425Z,56.50
2018-04-16T21:11:34.426Z,55.10
2018-04-16T21:14:01.998Z,49.37
2018-04-16T21:16:29.798Z,57.43
2018-04-16T21:18:57.447Z,54.27
2018-04-16T21:21:24.986Z,53.23
2018-04-16T21:23:52.583Z,50.53
2018-04-16T21:26:20.157Z,63.57
2018-04-16T21:28:48.924Z,57.03
2018-04-16T21:31:16.441Z,59.47
2018-04-16T21:33:44.036Z,53.60
2018-04-16T21:36:11.544Z,56.90
2018-04-16T21:38:39.874Z,55.67
2018-04-16T21:41:07.730Z,53.97
2018-04-16T21:43:35.404Z,58.53
2018-04-16T21:46:02.913Z,66.27
2018-04-16T21:48:30.526Z,61.43
2018-04-16T21:50:58.254Z,100.83
2018-04-16T21:53:26.539Z,62.53
2018-04-16T21:55:54.065Z,60.53
2018-04-16T21:58:22.355Z,57.17
2018-04-16T22:00:50.016Z,60.73
2018-04-16T22:03:18.515Z,60.53
2018-04-16T22:05:46.631Z,61.00
2018-04-16T22:08:14.243Z,60.03
2018-04-16T22:10:42.193Z,60.30
2018-04-16T22:13:10.483Z,64.97
2018-04-16T22:15:38.423Z,59.77
2018-04-16T22:18:05.929Z,62.50
2018-04-16T22:20:33.536Z,57.40
2018-04-16T22:23:01.089Z,60.03
2018-04-16T22:25:29.188Z,62.17
2018-04-16T22:27:57.540Z,62.07
2018-04-16T22:30:25.066Z,58.77
2018-04-16T22:32:52.640Z,60.47
2018-04-16T22:35:20.156Z,58.57
2018-04-16T22:37:47.712Z,64.70
2018-04-16T22:40:15.224Z,60.57
2018-04-16T22:42:43.247Z,60.47
2018-04-16T22:45:13.090Z,65.00
2018-04-16T22:47:40.705Z,64.20
2018-04-16T22:50:08.213Z,57.67
2018-04-16T22:52:35.871Z,61.40
2018-04-16T22:55:03.433Z,58.00
2018-04-16T22:57:30.923Z,61.57
2018-04-16T22:59:58.760Z,59.23
2018-04-16T23:02:26.267Z,59.10
2018-04-16T23:04:53.805Z,62.80
2018-04-16T23:07:21.299Z,62.93
2018-04-16T23:09:48.968Z,66.43
2018-04-16T23:12:16.631Z,75.93
2018-04-16T23:14:45.226Z,60.43
2018-04-16T23:17:12.731Z,65.23
2018-04-16T23:19:40.291Z,62.03
2018-04-16T23:22:07.843Z,75.30
2018-04-16T23:24:35.592Z,69.83
2018-04-16T23:27:03.904Z,59.80
2018-04-16T23:29:31.409Z,57.93
2018-04-16T23:31:59.395Z,57.47
2018-04-16T23:34:26.968Z,59.07
2018-04-16T23:36:54.696Z,53.07
2018-04-16T23:39:23.211Z,54.20
2018-04-16T23:41:50.710Z,56.93
2018-04-16T23:44:19.754Z,52.43
2018-04-16T23:46:47.829Z,64.87
2018-04-16T23:49:15.327Z,55.17
2018-04-16T23:51:42.918Z,56.10
2018-04-16T23:54:10.435Z,51.60
2018-04-16T23:56:37.969Z,53.47
2018-04-16T23:59:05.489Z,57.83
